createdAt,value
2023-05-03T00:01:50.606Z,4.47
2023-05-03T00:04:20.262Z,4.44
2023-05-03T00:06:50.047Z,4.37
2023-05-03T00:09:19.701Z,4.27
2023-05-03T00:11:48.956Z,4.25
2023-05-03T00:14:18.212Z,4.18
2023-05-03T00:16:47.488Z,4.23
2023-05-03T00:19:30.518Z,4.23
2023-05-03T00:21:48.288Z,4.12
2023-05-03T00:24:17.812Z,4.08
2023-05-03T00:26:47.063Z,4.19
2023-05-03T00:29:16.498Z,4.18
2023-05-03T00:31:46.011Z,4.21
2023-05-03T00:34:15.539Z,4.19
2023-05-03T00:36:44.766Z,4.11
2023-05-03T00:39:14.479Z,4.15
2023-05-03T00:41:43.707Z,4.15
2023-05-03T00:44:12.983Z,4.02
2023-05-03T00:46:42.344Z,3.94
2023-05-03T00:49:11.844Z,4.00
2023-05-03T00:51:42.022Z,3.98
2023-05-03T00:54:12.300Z,3.93
2023-05-03T00:56:51.081Z,3.93
2023-05-03T00:59:13.657Z,3.95
2023-05-03T01:01:43.113Z,3.96
2023-05-03T01:04:12.848Z,4.02
2023-05-03T01:06:46.099Z,3.91
2023-05-03T01:09:27.864Z,3.88
2023-05-03T01:12:27.964Z,3.92
2023-05-03T01:15:00.864Z,3.89
2023-05-03T01:17:33.172Z,3.91
2023-05-03T01:20:05.869Z,3.88
2023-05-03T01:22:44.427Z,3.87
2023-05-03T01:25:15.247Z,3.90
2023-05-03T01:27:44.575Z,3.86
2023-05-03T01:30:15.795Z,3.84
2023-05-03T01:32:48.268Z,3.86
2023-05-03T01:35:20.314Z,3.81
2023-05-03T01:37:49.803Z,3.89
2023-05-03T01:40:19.913Z,3.84
2023-05-03T01:42:49.865Z,3.79
2023-05-03T01:45:19.533Z,3.81
2023-05-03T01:47:49.283Z,3.77
2023-05-03T01:50:18.674Z,3.80
2023-05-03T01:52:51.281Z,3.80
2023-05-03T01:55:20.648Z,3.82
2023-05-03T01:57:49.935Z,3.73
2023-05-03T02:00:20.956Z,3.73
2023-05-03T02:02:50.559Z,3.78
2023-05-03T02:05:19.920Z,3.83
2023-05-03T02:07:49.194Z,3.89
2023-05-03T02:10:18.854Z,4.02
2023-05-03T02:12:48.706Z,4.02
2023-05-03T02:15:20.218Z,4.12
2023-05-03T02:17:51.215Z,4.25
2023-05-03T02:20:20.907Z,4.27
2023-05-03T02:22:50.245Z,4.32
2023-05-03T02:25:20.830Z,4.37
2023-05-03T02:27:50.132Z,4.37
2023-05-03T02:30:19.432Z,4.37
2023-05-03T02:32:48.759Z,4.36
2023-05-03T02:35:18.959Z,4.35
2023-05-03T02:37:48.622Z,4.27
2023-05-03T02:40:18.382Z,4.23
2023-05-03T02:42:48.194Z,4.27
2023-05-03T02:45:18.863Z,4.23
2023-05-03T02:47:48.147Z,4.13
2023-05-03T02:50:17.896Z,4.20
2023-05-03T02:52:47.613Z,4.17
2023-05-03T02:55:17.438Z,4.03
2023-05-03T02:57:47.099Z,3.84
2023-05-03T03:00:17.726Z,3.69
2023-05-03T03:02:47.866Z,3.70
2023-05-03T03:05:17.769Z,3.60
2023-05-03T03:07:48.758Z,3.57
2023-05-03T03:10:18.593Z,3.56
2023-05-03T03:12:50.383Z,3.58
2023-05-03T03:15:22.154Z,3.65
2023-05-03T03:17:52.070Z,3.74
2023-05-03T03:20:21.327Z,3.71
2023-05-03T03:22:51.436Z,3.70
2023-05-03T03:25:21.539Z,3.67
2023-05-03T03:27:51.321Z,3.69
2023-05-03T03:30:20.649Z,3.69
2023-05-03T03:32:52.008Z,3.60
2023-05-03T03:35:23.330Z,3.52
2023-05-03T03:37:53.161Z,3.44
2023-05-03T03:40:24.382Z,3.49
2023-05-03T03:42:54.556Z,3.50
2023-05-03T03:45:24.492Z,3.55
2023-05-03T03:47:54.033Z,3.53
2023-05-03T03:50:25.500Z,3.51
2023-05-03T03:52:55.561Z,3.45
2023-05-03T03:55:24.909Z,3.42
2023-05-03T03:57:55.110Z,3.31
2023-05-03T04:00:25.225Z,3.30
2023-05-03T04:02:56.742Z,3.30
2023-05-03T04:05:26.920Z,3.32
2023-05-03T04:07:56.342Z,3.27
2023-05-03T04:10:27.260Z,3.22
2023-05-03T04:12:56.813Z,3.22
2023-05-03T04:15:26.081Z,3.20
2023-05-03T04:17:57.076Z,3.22
2023-05-03T04:20:28.137Z,3.17
2023-05-03T04:22:57.672Z,3.20
2023-05-03T04:25:30.324Z,3.08
2023-05-03T04:28:01.266Z,3.05
2023-05-03T04:30:32.231Z,3.02
2023-05-03T04:33:03.881Z,3.08
2023-05-03T04:35:36.154Z,3.15
2023-05-03T04:38:07.370Z,3.07
2023-05-03T04:40:37.563Z,3.12
2023-05-03T04:43:11.535Z,3.20
2023-05-03T04:45:42.808Z,3.28
2023-05-03T04:48:13.907Z,3.33
2023-05-03T04:50:43.204Z,3.43
2023-05-03T04:53:13.442Z,3.57
2023-05-03T04:55:43.960Z,3.61
2023-05-03T04:58:13.294Z,3.74
2023-05-03T05:00:43.862Z,3.84
2023-05-03T05:03:14.900Z,3.99
2023-05-03T05:05:44.552Z,4.09
2023-05-03T05:08:14.203Z,4.29
2023-05-03T05:10:45.377Z,4.50
2023-05-03T05:13:16.733Z,4.62
2023-05-03T05:15:46.171Z,4.71
2023-05-03T05:18:15.759Z,4.89
2023-05-03T05:20:46.666Z,5.29
2023-05-03T05:23:16.510Z,6.03
2023-05-03T05:25:46.924Z,7.18
2023-05-03T05:28:16.548Z,7.59
2023-05-03T05:30:46.483Z,8.29
2023-05-03T05:33:17.507Z,8.39
2023-05-03T05:35:48.633Z,8.09
2023-05-03T05:38:20.080Z,8.21
2023-05-03T05:40:51.225Z,8.11
2023-05-03T05:43:21.275Z,8.58
2023-05-03T05:45:50.774Z,9.19
2023-05-03T05:48:21.071Z,8.99
2023-05-03T05:50:50.852Z,8.39
2023-05-03T05:53:20.260Z,8.35
2023-05-03T05:55:51.284Z,7.78
2023-05-03T05:58:21.080Z,7.93
2023-05-03T06:00:52.877Z,7.91
2023-05-03T06:03:22.416Z,7.74
2023-05-03T06:05:53.019Z,7.53
2023-05-03T06:08:22.621Z,7.38
2023-05-03T06:10:53.352Z,7.76
2023-05-03T06:13:23.546Z,8.15
2023-05-03T06:15:54.197Z,8.33
2023-05-03T06:18:24.419Z,8.17
2023-05-03T06:20:53.905Z,8.08
2023-05-03T06:23:23.448Z,7.96
2023-05-03T06:25:53.872Z,7.68
2023-05-03T06:28:24.192Z,7.72
2023-05-03T06:30:55.912Z,7.68
2023-05-03T06:33:25.610Z,7.66
2023-05-03T06:35:54.932Z,7.87
2023-05-03T06:38:24.598Z,7.89
2023-05-03T06:40:54.206Z,8.02
2023-05-03T06:43:24.012Z,7.87
2023-05-03T06:45:54.981Z,7.87
2023-05-03T06:48:25.437Z,7.74
2023-05-03T06:50:55.563Z,7.97
2023-05-03T06:53:25.153Z,7.94
2023-05-03T06:55:55.013Z,7.85
2023-05-03T06:58:24.456Z,7.91
2023-05-03T07:00:54.559Z,7.93
2023-05-03T07:03:25.137Z,8.13
2023-05-03T07:05:54.532Z,8.16
2023-05-03T07:08:24.065Z,8.22
2023-05-03T07:10:53.702Z,8.24
2023-05-03T07:13:22.954Z,8.24
2023-05-03T07:15:52.295Z,8.39
2023-05-03T07:18:21.656Z,8.42
2023-05-03T07:20:51.502Z,8.60
2023-05-03T07:23:21.313Z,8.97
2023-05-03T07:25:50.671Z,8.82
2023-05-03T07:28:20.211Z,8.82
2023-05-03T07:30:49.749Z,8.85
2023-05-03T07:33:19.545Z,8.87
2023-05-03T07:35:51.102Z,8.92
2023-05-03T07:38:20.825Z,9.31
2023-05-03T07:40:50.117Z,9.20
2023-05-03T07:43:21.237Z,9.19
2023-05-03T07:45:51.098Z,9.28
2023-05-03T07:48:20.444Z,9.40
2023-05-03T07:50:50.196Z,9.48
2023-05-03T07:53:19.816Z,9.62
2023-05-03T07:55:49.094Z,9.58
2023-05-03T07:58:23.213Z,9.46
2023-05-03T08:00:49.547Z,9.52
2023-05-03T08:03:19.103Z,9.55
2023-05-03T08:05:49.002Z,9.86
2023-05-03T08:08:19.625Z,9.85
2023-05-03T08:10:49.202Z,9.84
2023-05-03T08:13:18.438Z,9.99
2023-05-03T08:15:48.084Z,10.00
2023-05-03T08:18:17.390Z,9.95
2023-05-03T08:20:47.165Z,10.01
2023-05-03T08:23:16.662Z,10.10
2023-05-03T08:25:46.134Z,10.20
2023-05-03T08:28:15.385Z,10.23
2023-05-03T08:30:45.174Z,10.44
2023-05-03T08:33:14.454Z,10.58
2023-05-03T08:35:43.872Z,10.50
2023-05-03T08:38:14.085Z,10.75
2023-05-03T08:40:44.099Z,10.78
2023-05-03T08:43:15.009Z,10.50
2023-05-03T08:45:44.288Z,10.58
2023-05-03T08:48:15.528Z,10.56
2023-05-03T08:50:45.623Z,10.80
2023-05-03T08:53:15.182Z,10.97
2023-05-03T08:55:44.693Z,10.72
2023-05-03T08:58:14.524Z,10.84
2023-05-03T09:00:45.370Z,11.37
2023-05-03T09:03:15.078Z,11.25
2023-05-03T09:05:46.029Z,11.19
2023-05-03T09:08:17.143Z,11.37
2023-05-03T09:10:46.721Z,11.05
2023-05-03T09:13:16.429Z,11.57
2023-05-03T09:15:48.046Z,11.88
2023-05-03T09:18:20.737Z,12.01
2023-05-03T09:20:52.755Z,12.12
2023-05-03T09:23:33.367Z,12.26
2023-05-03T09:26:02.858Z,12.58
2023-05-03T09:28:35.622Z,12.59
2023-05-03T09:31:07.082Z,12.28
2023-05-03T09:33:36.571Z,12.33
2023-05-03T09:36:07.072Z,12.37
2023-05-03T09:38:39.899Z,12.81
2023-05-03T09:41:09.690Z,12.43
2023-05-03T09:43:51.808Z,12.82
2023-05-03T09:46:21.456Z,14.07
2023-05-03T09:48:51.366Z,15.18
2023-05-03T09:51:21.593Z,16.67
2023-05-03T09:53:51.539Z,18.18
2023-05-03T09:56:22.544Z,18.88
2023-05-03T09:58:51.816Z,19.85
2023-05-03T10:01:25.286Z,19.86
2023-05-03T10:03:57.634Z,18.80
2023-05-03T10:06:30.410Z,18.62
2023-05-03T10:09:08.632Z,18.62
2023-05-03T10:11:38.235Z,19.80
2023-05-03T10:14:07.770Z,19.54
2023-05-03T10:16:39.011Z,20.15
2023-05-03T10:19:22.503Z,19.09
2023-05-03T10:22:11.718Z,17.43
2023-05-03T10:25:02.703Z,18.65
2023-05-03T10:27:51.743Z,19.64
2023-05-03T10:30:29.871Z,18.52
2023-05-03T10:33:00.342Z,19.92
2023-05-03T10:35:31.283Z,20.34
2023-05-03T10:38:00.621Z,21.33
2023-05-03T10:40:43.856Z,20.40
2023-05-03T10:43:37.128Z,19.01
2023-05-03T10:46:07.936Z,19.15
2023-05-03T10:48:37.288Z,20.29
2023-05-03T10:51:33.893Z,20.44
2023-05-03T10:54:03.118Z,20.39
2023-05-03T10:56:32.678Z,20.60
2023-05-03T10:59:01.986Z,20.34
2023-05-03T11:01:32.324Z,21.09
2023-05-03T11:04:16.945Z,20.26
2023-05-03T11:06:47.952Z,20.98
2023-05-03T11:09:17.314Z,19.97
2023-05-03T11:11:46.842Z,20.26
2023-05-03T11:14:16.107Z,19.95
2023-05-03T11:16:50.315Z,20.14
2023-05-03T11:19:20.346Z,18.62
2023-05-03T11:21:49.902Z,19.80
2023-05-03T11:24:19.260Z,19.81
2023-05-03T11:26:49.100Z,20.01
2023-05-03T11:29:19.604Z,21.16
2023-05-03T11:31:49.710Z,19.59
2023-05-03T11:34:19.343Z,19.57
2023-05-03T11:36:49.650Z,20.21
2023-05-03T11:39:20.859Z,20.59
2023-05-03T11:42:05.136Z,21.27
2023-05-03T11:44:34.869Z,21.87
2023-05-03T11:47:04.515Z,20.59
2023-05-03T11:49:34.155Z,19.91
2023-05-03T11:52:03.756Z,19.84
2023-05-03T11:54:33.127Z,20.07
2023-05-03T11:57:05.605Z,19.52
2023-05-03T11:59:41.428Z,20.33
2023-05-03T12:02:14.095Z,22.02
2023-05-03T12:04:46.416Z,21.71
2023-05-03T12:07:19.164Z,20.89
2023-05-03T12:09:52.937Z,21.43
2023-05-03T12:12:26.922Z,21.10
2023-05-03T12:15:04.872Z,21.02
2023-05-03T12:17:37.931Z,20.56
2023-05-03T12:22:57.636Z,20.40
2023-05-03T12:25:31.075Z,19.45
2023-05-03T12:28:18.491Z,20.40
2023-05-03T12:30:34.241Z,20.08
2023-05-03T12:33:04.994Z,19.60
2023-05-03T12:35:34.799Z,19.05
2023-05-03T12:38:09.167Z,19.43
2023-05-03T12:40:38.124Z,19.23
2023-05-03T12:43:08.043Z,20.19
2023-05-03T12:45:40.561Z,20.80
2023-05-03T12:48:09.170Z,20.61
2023-05-03T12:50:39.841Z,20.01
2023-05-03T12:53:10.527Z,19.88
2023-05-03T12:55:43.450Z,19.97
2023-05-03T13:01:03.014Z,20.69
2023-05-03T13:05:47.304Z,20.12
2023-05-03T13:08:21.516Z,20.69
2023-05-03T13:10:49.448Z,20.74
2023-05-03T13:13:18.955Z,20.27
2023-05-03T13:15:49.505Z,19.86
2023-05-03T13:18:18.819Z,20.11
2023-05-03T13:20:49.389Z,19.37
2023-05-03T13:23:19.005Z,19.21
2023-05-03T13:25:48.301Z,19.74
2023-05-03T13:28:19.203Z,19.23
2023-05-03T13:30:48.502Z,19.55
2023-05-03T13:33:17.800Z,20.01
2023-05-03T13:35:48.339Z,20.19
2023-05-03T13:38:17.569Z,19.59
2023-05-03T13:40:47.055Z,19.65
2023-05-03T13:43:16.400Z,19.16
2023-05-03T13:45:45.920Z,18.77
2023-05-03T13:48:18.532Z,18.85
2023-05-03T13:50:46.541Z,18.76
2023-05-03T13:53:16.570Z,18.61
2023-05-03T13:55:45.933Z,19.24
2023-05-03T13:58:15.278Z,18.63
2023-05-03T14:00:45.813Z,18.13
2023-05-03T14:03:15.423Z,18.51
2023-05-03T14:06:03.842Z,18.65
2023-05-03T14:08:33.283Z,17.97
2023-05-03T14:11:05.419Z,18.78
2023-05-03T14:13:43.546Z,18.33
2023-05-03T14:16:06.979Z,18.91
2023-05-03T14:18:36.320Z,19.75
2023-05-03T14:21:07.080Z,18.86
2023-05-03T14:23:36.337Z,18.37
2023-05-03T14:26:06.364Z,19.46
2023-05-03T14:28:36.150Z,19.55
2023-05-03T14:31:06.907Z,18.40
2023-05-03T14:33:36.637Z,18.31
2023-05-03T14:36:11.038Z,18.49
2023-05-03T14:38:40.304Z,18.11
2023-05-03T14:41:09.674Z,18.06
2023-05-03T14:43:39.160Z,18.49
2023-05-03T14:46:10.439Z,18.36
2023-05-03T14:48:39.751Z,18.92
2023-05-03T14:51:09.397Z,18.61
2023-05-03T14:53:38.727Z,18.87
2023-05-03T14:56:08.455Z,19.03
2023-05-03T14:58:38.047Z,18.22
2023-05-03T15:01:07.431Z,18.02
2023-05-03T15:03:36.896Z,17.85
2023-05-03T15:06:06.607Z,18.02
2023-05-03T15:08:35.852Z,18.00
2023-05-03T15:11:06.072Z,18.22
2023-05-03T15:13:35.882Z,18.33
2023-05-03T15:16:05.953Z,18.44
2023-05-03T15:18:35.265Z,18.75
2023-05-03T15:21:04.710Z,18.26
2023-05-03T15:23:34.010Z,17.47
2023-05-03T15:26:03.399Z,18.04
2023-05-03T15:28:32.734Z,18.19
2023-05-03T15:31:02.377Z,18.57
2023-05-03T15:33:32.245Z,18.69
2023-05-03T15:36:01.823Z,18.53
2023-05-03T15:38:31.092Z,18.68
2023-05-03T15:41:00.814Z,18.64
2023-05-03T15:43:30.078Z,19.30
2023-05-03T15:45:59.496Z,18.97
2023-05-03T15:48:28.821Z,18.80
2023-05-03T15:50:58.137Z,18.50
2023-05-03T15:53:28.221Z,18.55
2023-05-03T15:55:58.277Z,18.50
2023-05-03T15:58:29.843Z,18.29
2023-05-03T16:01:00.100Z,18.03
2023-05-03T16:03:29.766Z,17.77
2023-05-03T16:05:59.751Z,17.76
2023-05-03T16:08:30.679Z,17.75
2023-05-03T16:10:59.916Z,18.24
2023-05-03T16:13:30.196Z,18.02
2023-05-03T16:15:59.445Z,17.27
2023-05-03T16:18:28.778Z,17.54
2023-05-03T16:20:58.426Z,18.10
2023-05-03T16:23:27.883Z,18.16
2023-05-03T16:25:57.809Z,18.48
2023-05-03T16:28:27.753Z,18.87
2023-05-03T16:30:57.174Z,18.86
2023-05-03T16:33:26.458Z,18.73
2023-05-03T16:35:56.606Z,18.27
2023-05-03T16:38:27.524Z,18.45
2023-05-03T16:40:58.779Z,18.50
2023-05-03T16:43:28.546Z,17.47
2023-05-03T16:46:02.383Z,17.22
2023-05-03T16:48:32.216Z,17.32
2023-05-03T16:51:02.317Z,17.34
2023-05-03T16:53:31.617Z,17.21
2023-05-03T16:56:01.719Z,16.58
2023-05-03T16:58:30.977Z,16.58
2023-05-03T17:01:00.354Z,16.78
2023-05-03T17:03:29.787Z,16.56
2023-05-03T17:06:01.414Z,16.05
2023-05-03T17:08:31.245Z,15.72
2023-05-03T17:11:02.334Z,15.94
2023-05-03T17:13:31.936Z,16.15
2023-05-03T17:16:03.101Z,16.20
2023-05-03T17:18:34.448Z,15.97
2023-05-03T17:21:04.762Z,15.32
2023-05-03T17:23:38.399Z,15.30
2023-05-03T17:26:09.884Z,15.18
2023-05-03T17:28:39.515Z,15.08
2023-05-03T17:31:09.174Z,14.88
2023-05-03T17:33:38.541Z,14.82
2023-05-03T17:36:08.966Z,14.87
2023-05-03T17:38:38.300Z,14.90
2023-05-03T17:41:11.881Z,14.84
2023-05-03T17:43:41.430Z,14.65
2023-05-03T17:46:12.968Z,14.56
2023-05-03T17:48:47.765Z,14.57
2023-05-03T17:51:17.306Z,14.52
2023-05-03T17:53:46.821Z,14.46
2023-05-03T17:56:17.159Z,14.35
2023-05-03T17:58:47.252Z,14.29
2023-05-03T18:01:17.197Z,14.27
2023-05-03T18:03:46.870Z,14.23
2023-05-03T18:06:16.947Z,14.12
2023-05-03T18:08:47.281Z,14.08
2023-05-03T18:11:17.344Z,14.02
2023-05-03T18:13:46.790Z,14.05
2023-05-03T18:16:17.064Z,13.98
2023-05-03T18:18:46.936Z,13.92
2023-05-03T18:21:16.993Z,13.83
2023-05-03T18:23:47.679Z,13.83
2023-05-03T18:26:17.236Z,13.71
2023-05-03T18:28:46.592Z,13.69
2023-05-03T18:31:16.143Z,13.55
2023-05-03T18:33:46.046Z,13.40
2023-05-03T18:36:15.855Z,13.34
2023-05-03T18:38:47.122Z,13.30
2023-05-03T18:41:17.492Z,13.27
2023-05-03T18:43:48.087Z,13.11
2023-05-03T18:46:21.012Z,13.01
2023-05-03T18:48:51.575Z,12.91
2023-05-03T18:51:20.905Z,12.70
2023-05-03T18:53:50.914Z,12.64
2023-05-03T18:56:20.289Z,12.57
2023-05-03T18:58:50.004Z,12.48
2023-05-03T19:01:19.303Z,12.37
2023-05-03T19:03:48.686Z,12.21
2023-05-03T19:06:17.984Z,12.18
2023-05-03T19:08:48.829Z,12.05
2023-05-03T19:11:19.109Z,12.08
2023-05-03T19:13:48.382Z,12.09
2023-05-03T19:16:18.068Z,11.98
2023-05-03T19:18:48.142Z,11.89
2023-05-03T19:21:17.567Z,11.86
2023-05-03T19:23:47.325Z,11.83
2023-05-03T19:26:16.656Z,11.72
2023-05-03T19:28:47.349Z,11.74
2023-05-03T19:31:17.760Z,11.67
2023-05-03T19:33:47.290Z,11.60
2023-05-03T19:36:17.049Z,11.59
2023-05-03T19:38:46.670Z,11.55
2023-05-03T19:41:16.842Z,11.56
2023-05-03T19:43:46.180Z,11.49
2023-05-03T19:46:16.815Z,11.45
2023-05-03T19:48:46.175Z,11.37
2023-05-03T19:51:16.966Z,11.34
2023-05-03T19:53:48.737Z,11.25
2023-05-03T19:56:18.491Z,11.22
2023-05-03T19:58:48.043Z,11.23
2023-05-03T20:01:17.633Z,11.21
2023-05-03T20:03:47.791Z,11.25
2023-05-03T20:06:17.428Z,11.24
2023-05-03T20:08:47.446Z,11.31
2023-05-03T20:11:19.627Z,11.19
2023-05-03T20:13:49.175Z,11.20
2023-05-03T20:16:20.902Z,11.15
2023-05-03T20:18:49.655Z,11.18
2023-05-03T20:21:19.025Z,11.15
2023-05-03T20:23:49.459Z,11.15
2023-05-03T20:26:19.205Z,11.11
2023-05-03T20:28:48.728Z,11.07
2023-05-03T20:31:18.079Z,11.06
2023-05-03T20:33:47.722Z,11.07
2023-05-03T20:36:17.088Z,10.96
2023-05-03T20:38:46.649Z,10.86
2023-05-03T20:41:17.866Z,10.74
2023-05-03T20:43:47.237Z,10.68
2023-05-03T20:46:16.881Z,10.69
2023-05-03T20:48:46.327Z,10.67
2023-05-03T20:51:17.386Z,10.69
2023-05-03T20:53:51.221Z,10.60
2023-05-03T20:56:21.337Z,10.59
2023-05-03T20:58:50.768Z,10.49
2023-05-03T21:01:22.012Z,10.44
2023-05-03T21:03:51.321Z,10.37
2023-05-03T21:06:21.555Z,10.34
2023-05-03T21:08:53.052Z,10.31
2023-05-03T21:11:23.365Z,10.15
2023-05-03T21:13:52.645Z,10.19
2023-05-03T21:16:22.229Z,10.14
2023-05-03T21:18:55.565Z,10.03
2023-05-03T21:21:25.255Z,9.96
2023-05-03T21:23:54.531Z,9.97
2023-05-03T21:26:24.441Z,10.00
2023-05-03T21:28:53.833Z,10.00
2023-05-03T21:31:23.503Z,9.97
2023-05-03T21:33:52.868Z,9.90
2023-05-03T21:36:23.139Z,9.86
2023-05-03T21:38:53.240Z,9.90
2023-05-03T21:41:24.061Z,9.84
2023-05-03T21:43:53.435Z,9.84
2023-05-03T21:46:23.094Z,9.77
2023-05-03T21:48:52.524Z,9.75
2023-05-03T21:51:23.126Z,9.72
2023-05-03T21:53:52.636Z,9.65
2023-05-03T21:56:22.023Z,9.68
2023-05-03T21:58:51.300Z,9.64
2023-05-03T22:01:21.847Z,9.57
2023-05-03T22:03:51.483Z,9.52
2023-05-03T22:06:21.794Z,9.41
2023-05-03T22:08:51.027Z,9.34
2023-05-03T22:11:21.192Z,9.37
2023-05-03T22:14:06.083Z,9.32
2023-05-03T22:16:22.948Z,9.33
2023-05-03T22:18:53.002Z,9.29
2023-05-03T22:21:22.321Z,9.29
2023-05-03T22:23:52.049Z,9.17
2023-05-03T22:26:21.339Z,9.12
2023-05-03T22:28:50.953Z,9.02
2023-05-03T22:31:20.543Z,8.98
2023-05-03T22:33:50.132Z,9.03
2023-05-03T22:36:19.604Z,9.01
2023-05-03T22:38:49.019Z,8.97
2023-05-03T22:41:18.300Z,8.96
2023-05-03T22:43:48.032Z,8.96
2023-05-03T22:46:17.340Z,9.00
2023-05-03T22:48:46.771Z,9.00
2023-05-03T22:51:16.077Z,8.88
2023-05-03T22:53:45.859Z,8.87
2023-05-03T22:56:15.685Z,8.94
2023-05-03T22:58:45.313Z,8.85
2023-05-03T23:01:15.523Z,8.78
2023-05-03T23:03:45.005Z,8.81
2023-05-03T23:06:15.121Z,8.77
2023-05-03T23:08:44.496Z,8.76
2023-05-03T23:11:13.813Z,8.77
2023-05-03T23:13:43.711Z,8.69
2023-05-03T23:16:13.061Z,8.64
2023-05-03T23:18:42.822Z,8.62
2023-05-03T23:21:12.115Z,8.58
2023-05-03T23:23:41.822Z,8.52
2023-05-03T23:26:11.445Z,8.49
2023-05-03T23:28:41.482Z,8.44
2023-05-03T23:31:11.405Z,8.44
2023-05-03T23:33:41.688Z,8.38
2023-05-03T23:36:11.322Z,8.42
2023-05-03T23:38:40.592Z,8.41
2023-05-03T23:41:09.873Z,8.42
2023-05-03T23:43:39.121Z,8.36
2023-05-03T23:46:08.879Z,8.30
2023-05-03T23:48:38.160Z,8.28
2023-05-03T23:51:07.750Z,8.27
2023-05-03T23:53:37.001Z,8.27
2023-05-03T23:56:06.727Z,8.22
2023-05-03T23:58:36.237Z,8.20
